^^
Datos históricos de la estación: Murcia-Puente Tocinos
Diario Informe para Mayo 12, 2019 Unidades:  Ambas    Ingés   Métrico
Diario Semanal Mensual Anual
  Máxima: Mínima: Promedio:
Temperatura: 58.6 °F /  14.8 °C 34.3 °F /  1.3 °C 44.8 °F /  7.1 °C
Punto de rocio: 31.6 °F /  -0.2 °C 21.4 °F /  -5.9 °C 25.9 °F /  -3.4 °C
Humedad: 71% 27% 49%
Velocidad viento: 5.9mph /  9.5km/h - 3.1mph /  5km/h
Racha viento: 9.2mph /  14.8km/h - -
Viento- - SSO
Presión: 30.4 in /  1029.8 hPa 30.3 in /  1025.8 hPa -
Precipitación: 0 in /  0.0 mm    
 
 
Tabla de datos para Mayo 12, 2019
Hora Temperatura Punto de rocio Presión Viento Velocidad viento Racha viento Humedad Intensidad lluvia(por hora) Nubes
00:04 41.7 °F /  5.4 °C 26.6 °F /  -3 °C 30.3in /  1026.6hPa SO 4mph /  6.5km/h 7mph /  11.3km/h 54.9% 0in /  0.0mm
00:09 42.1 °F /  5.6 °C 26.6 °F /  -3 °C 30.3in /  1026.6hPa SSO 4.7mph /  7.5km/h 7mph /  11.3km/h 54.1% 0in /  0.0mm
00:14 42.1 °F /  5.6 °C 26.6 °F /  -3 °C 30.3in /  1026.6hPa SSO 5.2mph /  8.4km/h 6.2mph /  10km/h 54% 0in /  0.0mm
00:19 42.3 °F /  5.7 °C 26.2 °F /  -3.2 °C 30.3in /  1026.6hPa SO 4.5mph /  7.3km/h 6mph /  9.7km/h 52.8% 0in /  0.0mm
00:24 42.4 °F /  5.8 °C 25.7 °F /  -3.5 °C 30.3in /  1026.6hPa SSO 4mph /  6.5km/h 6.9mph /  11.1km/h 51.4% 0in /  0.0mm
00:29 42.3 °F /  5.7 °C 26.4 °F /  -3.1 °C 30.3in /  1026.6hPa SSO 4.2mph /  6.7km/h 7mph /  11.3km/h 53% 0in /  0.0mm
00:34 41.7 °F /  5.4 °C 26.4 °F /  -3.1 °C 30.3in /  1026.6hPa SSO 4.3mph /  6.9km/h 7mph /  11.3km/h 54% 0in /  0.0mm
00:39 41.4 °F /  5.2 °C 26.4 °F /  -3.1 °C 30.3in /  1026.6hPa Sur 3.9mph /  6.3km/h 6mph /  9.7km/h 54.8% 0in /  0.0mm
00:44 41 °F /  5 °C 26.4 °F /  -3.1 °C 30.3in /  1026.6hPa SE 3.6mph /  5.8km/h 5.2mph /  8.4km/h 55.8% 0in /  0.0mm
00:49 40.5 °F /  4.7 °C 26.4 °F /  -3.1 °C 30.3in /  1026.6hPa Sur 3.6mph /  5.8km/h 5.9mph /  9.5km/h 57% 0in /  0.0mm
00:54 39.7 °F /  4.3 °C 26.2 °F /  -3.2 °C 30.3in /  1026.6hPa Sur 3.6mph /  5.8km/h 6mph /  9.7km/h 57.9% 0in /  0.0mm
00:59 39.4 °F /  4.1 °C 26.2 °F /  -3.2 °C 30.3in /  1026.6hPa Sur 4mph /  6.5km/h 6.9mph /  11.1km/h 59% 0in /  0.0mm
01:04 39.4 °F /  4.1 °C 26.2 °F /  -3.2 °C 30.3in /  1026.6hPa SSO 4.3mph /  6.9km/h 7mph /  11.3km/h 59% 0in /  0.0mm
01:09 39.6 °F /  4.2 °C 25.9 °F /  -3.4 °C 30.3in /  1026.5hPa SSO 4.5mph /  7.3km/h 6.9mph /  11.1km/h 57.8% 0in /  0.0mm
01:14 39.9 °F /  4.4 °C 25.3 °F /  -3.7 °C 30.3in /  1026.5hPa SSO 4.7mph /  7.6km/h 7mph /  11.3km/h 55.9% 0in /  0.0mm
01:19 40.3 °F /  4.6 °C 25 °F /  -3.9 °C 30.3in /  1026.5hPa SO 4.7mph /  7.6km/h 6mph /  9.7km/h 54.1% 0in /  0.0mm
01:24 40.6 °F /  4.8 °C 25 °F /  -3.9 °C 30.3in /  1026.5hPa SO 4.7mph /  7.6km/h 6mph /  9.7km/h 53.6% 0in /  0.0mm
01:29 40.8 °F /  4.9 °C 25 °F /  -3.9 °C 30.3in /  1026.5hPa SO 4.3mph /  6.9km/h 5mph /  8km/h 53% 0in /  0.0mm
01:34 41 °F /  5 °C 25 °F /  -3.9 °C 30.3in /  1026.5hPa SO 4mph /  6.5km/h 5mph /  8km/h 52.8% 0in /  0.0mm
01:39 40.6 °F /  4.8 °C 24.6 °F /  -4.1 °C 30.3in /  1026.5hPa OSO 3.1mph /  5km/h 5.2mph /  8.4km/h 52.2% 0in /  0.0mm
01:44 40.5 °F /  4.7 °C 24.1 °F /  -4.4 °C 30.3in /  1026.5hPa Oeste 2.4mph /  3.9km/h 6.9mph /  11.1km/h 52% 0in /  0.0mm
01:49 39.9 °F /  4.4 °C 23.9 °F /  -4.5 °C 30.3in /  1026.5hPa Oeste 3.3mph /  5.3km/h 7mph /  11.3km/h 52.3% 0in /  0.0mm
01:54 39.7 °F /  4.3 °C 23.9 °F /  -4.5 °C 30.3in /  1026.5hPa Oeste 4mph /  6.5km/h 6mph /  9.7km/h 53% 0in /  0.0mm
01:59 39.6 °F /  4.2 °C 23.9 °F /  -4.5 °C 30.3in /  1026.5hPa Oeste 3mph /  4.8km/h 5.4mph /  8.7km/h 53.3% 0in /  0.0mm
02:04 39.4 °F /  4.1 °C 24.1 °F /  -4.4 °C 30.3in /  1026.5hPa Oeste 2.4mph /  3.9km/h 6mph /  9.7km/h 54% 0in /  0.0mm
02:09 39 °F /  3.9 °C 24.1 °F /  -4.4 °C 30.3in /  1026.5hPa OSO 2.4mph /  3.9km/h 5mph /  8km/h 54.4% 0in /  0.0mm
02:14 39 °F /  3.9 °C 24.4 °F /  -4.2 °C 30.3in /  1026.5hPa Oeste 2.4mph /  3.9km/h 5mph /  8km/h 55.4% 0in /  0.0mm
02:19 39 °F /  3.9 °C 24.8 °F /  -4 °C 30.3in /  1026.6hPa Oeste 2.7mph /  4.3km/h 5mph /  8km/h 56.4% 0in /  0.0mm
02:24 38.8 °F /  3.8 °C 25 °F /  -3.9 °C 30.3in /  1026.6hPa Oeste 2.9mph /  4.7km/h 5mph /  8km/h 57% 0in /  0.0mm
02:29 38.8 °F /  3.8 °C 25 °F /  -3.9 °C 30.3in /  1026.6hPa Oeste 2.1mph /  3.3km/h 3mph /  4.8km/h 57.4% 0in /  0.0mm
02:34 38.7 °F /  3.7 °C 25.3 °F /  -3.7 °C 30.3in /  1026.9hPa Oeste 1.4mph /  2.2km/h 3mph /  4.8km/h 58.4% 0in /  0.0mm
02:39 38.7 °F /  3.7 °C 25.7 °F /  -3.5 °C 30.3in /  1026.9hPa Oeste 1.4mph /  2.2km/h 4.6mph /  7.4km/h 59.3% 0in /  0.0mm
02:44 38.5 °F /  3.6 °C 26.1 °F /  -3.3 °C 30.3in /  1026.9hPa OSO 1.4mph /  2.2km/h 6.9mph /  11.1km/h 60.7% 0in /  0.0mm
02:49 38.5 °F /  3.6 °C 26.8 °F /  -2.9 °C 30.3in /  1026.9hPa SSO 2.6mph /  4.2km/h 7mph /  11.3km/h 62.2% 0in /  0.0mm
02:54 38.5 °F /  3.6 °C 27 °F /  -2.8 °C 30.3in /  1026.9hPa SO 3.6mph /  5.8km/h 7.4mph /  11.9km/h 62.9% 0in /  0.0mm
02:59 38.5 °F /  3.6 °C 26.4 °F /  -3.1 °C 30.3in /  1026.9hPa SO 3.9mph /  6.2km/h 7mph /  11.3km/h 61.8% 0in /  0.0mm
03:04 38.5 °F /  3.6 °C 26.2 °F /  -3.2 °C 30.3in /  1026.9hPa SO 4mph /  6.5km/h 7mph /  11.3km/h 61.3% 0in /  0.0mm
03:09 38.5 °F /  3.6 °C 26.1 °F /  -3.3 °C 30.3in /  1026.9hPa SO 4.2mph /  6.7km/h 7mph /  11.3km/h 60.4% 0in /  0.0mm
03:14 38.5 °F /  3.6 °C 25.5 °F /  -3.6 °C 30.3in /  1026.9hPa SO 4.3mph /  6.9km/h 6mph /  9.7km/h 59.5% 0in /  0.0mm
03:19 38.3 °F /  3.5 °C 25.2 °F /  -3.8 °C 30.3in /  1027.2hPa Sur 3.9mph /  6.3km/h 6.9mph /  11.1km/h 59% 0in /  0.0mm
03:24 38.1 °F /  3.4 °C 24.8 °F /  -4 °C 30.3in /  1027.2hPa SSO 3.6mph /  5.8km/h 7.4mph /  11.9km/h 58.2% 0in /  0.0mm
03:29 37.9 °F /  3.3 °C 24.1 °F /  -4.4 °C 30.3in /  1027.2hPa SO 4.6mph /  7.4km/h 8.1mph /  13km/h 57.2% 0in /  0.0mm
03:34 37.9 °F /  3.3 °C 23.7 °F /  -4.6 °C 30.3in /  1027.2hPa SO 5.4mph /  8.7km/h 8mph /  12.9km/h 56.5% 0in /  0.0mm
03:39 37.9 °F /  3.3 °C 23.5 °F /  -4.7 °C 30.3in /  1027.2hPa OSO 5.3mph /  8.5km/h 7mph /  11.3km/h 55.7% 0in /  0.0mm
03:44 38.1 °F /  3.4 °C 23.4 °F /  -4.8 °C 30.3in /  1027.2hPa OSO 5.2mph /  8.4km/h 7mph /  11.3km/h 54.9% 0in /  0.0mm
03:49 38.1 °F /  3.4 °C 23 °F /  -5 °C 30.3in /  1027.2hPa SO 4.3mph /  6.9km/h 6mph /  9.7km/h 54.4% 0in /  0.0mm
03:54 38.1 °F /  3.4 °C 23.2 °F /  -4.9 °C 30.3in /  1027.2hPa SO 3.6mph /  5.8km/h 6.4mph /  10.3km/h 54.5% 0in /  0.0mm
03:59 38.1 °F /  3.4 °C 22.8 °F /  -5.1 °C 30.3in /  1027.2hPa SO 3.9mph /  6.2km/h 7.4mph /  11.9km/h 53.8% 0in /  0.0mm
04:04 38.3 °F /  3.5 °C 22.6 °F /  -5.2 °C 30.3in /  1027.4hPa SO 4mph /  6.5km/h 7mph /  11.3km/h 53% 0in /  0.0mm
04:09 38.5 °F /  3.6 °C 22.5 °F /  -5.3 °C 30.3in /  1027.4hPa SO 4.2mph /  6.7km/h 7mph /  11.3km/h 52.2% 0in /  0.0mm
04:14 38.5 °F /  3.6 °C 22.1 °F /  -5.5 °C 30.3in /  1027.4hPa OSO 4.3mph /  6.9km/h 7mph /  11.3km/h 51.3% 0in /  0.0mm
04:19 38.5 °F /  3.6 °C 21.7 °F /  -5.7 °C 30.3in /  1027.4hPa SO 4.2mph /  6.7km/h 7mph /  11.3km/h 50.7% 0in /  0.0mm
04:24 38.5 °F /  3.6 °C 21.4 °F /  -5.9 °C 30.3in /  1027.2hPa SO 4mph /  6.5km/h 5.9mph /  9.5km/h 50% 0in /  0.0mm
04:29 38.5 °F /  3.6 °C 21.4 °F /  -5.9 °C 30.3in /  1027.2hPa OSO 3.8mph /  6.1km/h 6mph /  9.7km/h 50% 0in /  0.0mm
04:34 38.5 °F /  3.6 °C 21.4 °F /  -5.9 °C 30.3in /  1027.2hPa OSO 3.6mph /  5.8km/h 6mph /  9.7km/h 49.7% 0in /  0.0mm
04:39 38.5 °F /  3.6 °C 22.5 °F /  -5.3 °C 30.3in /  1027.1hPa OSO 3mph /  4.8km/h 5mph /  8km/h 52.1% 0in /  0.0mm
04:44 38.5 °F /  3.6 °C 24.1 °F /  -4.4 °C 30.3in /  1027.1hPa OSO 2.4mph /  3.9km/h 2.9mph /  4.7km/h 55.9% 0in /  0.0mm
04:49 37.9 °F /  3.3 °C 25.3 °F /  -3.7 °C 30.3in /  1027.2hPa SSE 2.1mph /  3.3km/h 4.6mph /  7.4km/h 60.3% 0in /  0.0mm
04:54 37.2 °F /  2.9 °C 25.9 °F /  -3.4 °C 30.3in /  1027.2hPa SSE 1.8mph /  2.9km/h 5mph /  8km/h 63.1% 0in /  0.0mm
04:59 36.7 °F /  2.6 °C 25.5 °F /  -3.6 °C 30.3in /  1027.2hPa SSE 2.5mph /  4km/h 5mph /  8km/h 63.5% 0in /  0.0mm
05:04 36.7 °F /  2.6 °C 25.9 °F /  -3.4 °C 30.3in /  1027.2hPa SSE 2.9mph /  4.6km/h 5.2mph /  8.4km/h 64.9% 0in /  0.0mm
05:09 36.5 °F /  2.5 °C 25.9 °F /  -3.4 °C 30.3in /  1027.2hPa SSE 3mph /  4.8km/h 5mph /  8km/h 65% 0in /  0.0mm
05:14 36.3 °F /  2.4 °C 25.7 °F /  -3.5 °C 30.3in /  1027.2hPa SSE 3.1mph /  5km/h 5mph /  8km/h 65% 0in /  0.0mm
05:19 36.3 °F /  2.4 °C 25.7 °F /  -3.5 °C 30.3in /  1027.3hPa SSE 2.5mph /  4.1km/h 4mph /  6.4km/h 65% 0in /  0.0mm
05:24 36.3 °F /  2.4 °C 25.3 °F /  -3.7 °C 30.3in /  1027.3hPa SSE 2mph /  3.2km/h 4.6mph /  7.4km/h 64.2% 0in /  0.0mm
05:29 36.3 °F /  2.4 °C 25.5 °F /  -3.6 °C 30.3in /  1027.3hPa SSE 2.2mph /  3.6km/h 5mph /  8km/h 64.2% 0in /  0.0mm
05:34 36.3 °F /  2.4 °C 25.9 °F /  -3.4 °C 30.3in /  1027.3hPa SSE 2.4mph /  3.9km/h 5.8mph /  9.3km/h 65.8% 0in /  0.0mm
05:39 36 °F /  2.2 °C 26.1 °F /  -3.3 °C 30.3in /  1027.3hPa SSE 3mph /  4.9km/h 6mph /  9.7km/h 67.3% 0in /  0.0mm
05:44 35.4 °F /  1.9 °C 26.2 °F /  -3.2 °C 30.3in /  1027.3hPa Sur 3.6mph /  5.8km/h 5.4mph /  8.7km/h 68.6% 0in /  0.0mm
05:49 35.2 °F /  1.8 °C 26.2 °F /  -3.2 °C 30.3in /  1027.3hPa Sur 3.6mph /  5.8km/h 6mph /  9.7km/h 69.4% 0in /  0.0mm
05:54 35.1 °F /  1.7 °C 26.2 °F /  -3.2 °C 30.3in /  1027.3hPa SSE 3.6mph /  5.8km/h 6.2mph /  10km/h 70% 0in /  0.0mm
05:59 34.5 °F /  1.4 °C 26.1 °F /  -3.3 °C 30.3in /  1027.3hPa SSE 3.9mph /  6.2km/h 6.2mph /  10km/h 70.8% 0in /  0.0mm
06:04 34.3 °F /  1.3 °C 25.9 °F /  -3.4 °C 30.3in /  1027.3hPa Sur 4mph /  6.5km/h 6mph /  9.7km/h 71% 0in /  0.0mm
06:09 34.3 °F /  1.3 °C 25.9 °F /  -3.4 °C 30.3in /  1027.3hPa Sur 4mph /  6.5km/h 5.8mph /  9.3km/h 71% 0in /  0.0mm
06:14 34.3 °F /  1.3 °C 25.9 °F /  -3.4 °C 30.3in /  1027.3hPa Sur 4mph /  6.5km/h 6mph /  9.7km/h 71% 0in /  0.0mm
06:19 34.3 °F /  1.3 °C 25.9 °F /  -3.4 °C 30.3in /  1027.5hPa Sur 3.5mph /  5.7km/h 5mph /  8km/h 71% 0in /  0.0mm
06:24 34.3 °F /  1.3 °C 25.9 °F /  -3.4 °C 30.3in /  1027.5hPa Sur 3.1mph /  5km/h 5mph /  8km/h 71% 0in /  0.0mm
06:29 34.5 °F /  1.4 °C 25.7 °F /  -3.5 °C 30.3in /  1027.5hPa Sur 3mph /  4.8km/h 5.2mph /  8.4km/h 70.2% 0in /  0.0mm
06:34 34.5 °F /  1.4 °C 25.5 °F /  -3.6 °C 30.3in /  1027.5hPa SSE 2.9mph /  4.6km/h 5.8mph /  9.3km/h 69.2% 0in /  0.0mm
06:39 34.7 °F /  1.5 °C 25.7 °F /  -3.5 °C 30.3in /  1027.3hPa SSE 3mph /  4.8km/h 6mph /  9.7km/h 69% 0in /  0.0mm
06:44 34.7 °F /  1.5 °C 25.2 °F /  -3.8 °C 30.3in /  1027.3hPa SSE 3.1mph /  5km/h 6mph /  9.7km/h 67.7% 0in /  0.0mm
06:49 34.9 °F /  1.6 °C 25 °F /  -3.9 °C 30.3in /  1027.5hPa SSE 3.4mph /  5.4km/h 5.9mph /  9.5km/h 67% 0in /  0.0mm
06:54 34.9 °F /  1.6 °C 24.8 °F /  -4 °C 30.3in /  1027.5hPa SSE 3.6mph /  5.8km/h 6mph /  9.7km/h 66.2% 0in /  0.0mm
06:59 34.9 °F /  1.6 °C 24.6 °F /  -4.1 °C 30.3in /  1027.5hPa SSE 3.6mph /  5.8km/h 6mph /  9.7km/h 65.8% 0in /  0.0mm
07:04 34.7 °F /  1.5 °C 24.1 °F /  -4.4 °C 30.3in /  1027.6hPa Sur 3.6mph /  5.8km/h 5mph /  8km/h 65% 0in /  0.0mm
07:09 34.7 °F /  1.5 °C 24.1 °F /  -4.4 °C 30.3in /  1027.6hPa Sur 3.2mph /  5.2km/h 5.4mph /  8.7km/h 64.6% 0in /  0.0mm
07:14 35.1 °F /  1.7 °C 23.9 °F /  -4.5 °C 30.3in /  1027.6hPa SSO 2.9mph /  4.7km/h 6mph /  9.7km/h 63.3% 0in /  0.0mm
07:19 35.4 °F /  1.9 °C 24.1 °F /  -4.4 °C 30.4in /  1027.7hPa SO 3mph /  4.8km/h 5mph /  8km/h 63% 0in /  0.0mm
07:24 35.8 °F /  2.1 °C 24.3 °F /  -4.3 °C 30.4in /  1027.7hPa OSO 3.1mph /  5km/h 5mph /  8km/h 62.6% 0in /  0.0mm
07:29 35.8 °F /  2.1 °C 23.4 °F /  -4.8 °C 30.4in /  1027.7hPa OSO 3mph /  4.8km/h 5.2mph /  8.4km/h 60.5% 0in /  0.0mm
07:34 35.8 °F /  2.1 °C 23 °F /  -5 °C 30.4in /  1027.8hPa SO 2.9mph /  4.7km/h 5mph /  8km/h 59.5% 0in /  0.0mm
07:39 36 °F /  2.2 °C 23 °F /  -5 °C 30.4in /  1027.8hPa SO 3.3mph /  5.3km/h 5.8mph /  9.3km/h 59% 0in /  0.0mm
07:44 36 °F /  2.2 °C 23.4 °F /  -4.8 °C 30.4in /  1027.8hPa SSO 3.6mph /  5.8km/h 6mph /  9.7km/h 59.8% 0in /  0.0mm
07:49 36 °F /  2.2 °C 23.7 °F /  -4.6 °C 30.4in /  1028.0hPa SSO 3.4mph /  5.4km/h 5mph /  8km/h 60.6% 0in /  0.0mm
07:54 35.8 °F /  2.1 °C 23.7 °F /  -4.6 °C 30.4in /  1028.0hPa SSO 3.1mph /  5km/h 5mph /  8km/h 61% 0in /  0.0mm
07:59 35.6 °F /  2 °C 23.7 °F /  -4.6 °C 30.4in /  1028.0hPa SSO 3mph /  4.8km/h 5mph /  8km/h 61.6% 0in /  0.0mm
08:04 35.4 °F /  1.9 °C 23.7 °F /  -4.6 °C 30.4in /  1028.1hPa Sur 2.9mph /  4.6km/h 5mph /  8km/h 62% 0in /  0.0mm
08:09 35.2 °F /  1.8 °C 23.5 °F /  -4.7 °C 30.4in /  1028.1hPa SSE 2.9mph /  4.7km/h 5.2mph /  8.4km/h 62% 0in /  0.0mm
08:14 35.1 °F /  1.7 °C 23.2 °F /  -4.9 °C 30.4in /  1028.1hPa Sur 2.9mph /  4.7km/h 5.2mph /  8.4km/h 62% 0in /  0.0mm
08:19 34.9 °F /  1.6 °C 23 °F /  -5 °C 30.4in /  1028.1hPa SSO 3mph /  4.8km/h 5mph /  8km/h 61.7% 0in /  0.0mm
08:24 35.1 °F /  1.7 °C 22.6 °F /  -5.2 °C 30.4in /  1028.1hPa OSO 3.1mph /  5km/h 5.2mph /  8.4km/h 59.9% 0in /  0.0mm
08:29 35.6 °F /  2 °C 22.1 °F /  -5.5 °C 30.4in /  1028.1hPa OSO 3.1mph /  5km/h 5.8mph /  9.3km/h 57.7% 0in /  0.0mm
08:34 35.8 °F /  2.1 °C 21.9 °F /  -5.6 °C 30.4in /  1028.3hPa OSO 3.1mph /  5km/h 6mph /  9.7km/h 56.5% 0in /  0.0mm
08:39 36 °F /  2.2 °C 21.7 °F /  -5.7 °C 30.4in /  1028.3hPa SO 3mph /  4.8km/h 5mph /  8km/h 55.8% 0in /  0.0mm
08:44 36 °F /  2.2 °C 23 °F /  -5 °C 30.4in /  1028.3hPa SE 2.9mph /  4.7km/h 5.2mph /  8.4km/h 58.9% 0in /  0.0mm
08:49 35.2 °F /  1.8 °C 23.4 °F /  -4.8 °C 30.4in /  1028.6hPa SE 2.9mph /  4.7km/h 5mph /  8km/h 61.3% 0in /  0.0mm
08:54 35.1 °F /  1.7 °C 23.2 °F /  -4.9 °C 30.4in /  1028.6hPa SSE 2.9mph /  4.6km/h 5.2mph /  8.4km/h 62% 0in /  0.0mm
08:59 34.7 °F /  1.5 °C 23.4 °F /  -4.8 °C 30.4in /  1028.6hPa Sur 3mph /  4.8km/h 5mph /  8km/h 62.9% 0in /  0.0mm
09:04 34.9 °F /  1.6 °C 23.5 °F /  -4.7 °C 30.4in /  1028.7hPa Sur 3.1mph /  5km/h 5mph /  8km/h 63% 0in /  0.0mm
09:09 35.1 °F /  1.7 °C 23.4 °F /  -4.8 °C 30.4in /  1028.7hPa SSO 3mph /  4.8km/h 5.2mph /  8.4km/h 62.2% 0in /  0.0mm
09:14 35.4 °F /  1.9 °C 23 °F /  -5 °C 30.4in /  1028.7hPa SSO 2.9mph /  4.7km/h 5.9mph /  9.5km/h 60.1% 0in /  0.0mm
09:19 36.1 °F /  2.3 °C 23.2 °F /  -4.9 °C 30.4in /  1028.9hPa Sur 3mph /  4.8km/h 6mph /  9.7km/h 59.1% 0in /  0.0mm
09:24 36.7 °F /  2.6 °C 23.5 °F /  -4.7 °C 30.4in /  1028.9hPa Sur 3.1mph /  5km/h 5mph /  8km/h 58.8% 0in /  0.0mm
09:29 37 °F /  2.8 °C 23.2 °F /  -4.9 °C 30.4in /  1028.9hPa SSO 3mph /  4.8km/h 5.2mph /  8.4km/h 57.2% 0in /  0.0mm
09:34 37.6 °F /  3.1 °C 23.7 °F /  -4.6 °C 30.4in /  1029.1hPa SE 2.9mph /  4.7km/h 5mph /  8km/h 57.2% 0in /  0.0mm
09:39 37.9 °F /  3.3 °C 24.3 °F /  -4.3 °C 30.4in /  1029.1hPa SSE 2.6mph /  4.2km/h 5.2mph /  8.4km/h 57.5% 0in /  0.0mm
09:44 38.1 °F /  3.4 °C 24.3 °F /  -4.3 °C 30.4in /  1029.1hPa SE 2.4mph /  3.9km/h 5mph /  8km/h 57% 0in /  0.0mm
09:49 38.3 °F /  3.5 °C 24.1 °F /  -4.4 °C 30.4in /  1029.3hPa SSE 2.8mph /  4.5km/h 5mph /  8km/h 56.1% 0in /  0.0mm
09:54 38.7 °F /  3.7 °C 24.3 °F /  -4.3 °C 30.4in /  1029.3hPa Sur 3.1mph /  5km/h 5mph /  8km/h 56% 0in /  0.0mm
09:59 38.8 °F /  3.8 °C 23.9 °F /  -4.5 °C 30.4in /  1029.3hPa SO 3mph /  4.8km/h 5mph /  8km/h 54.7% 0in /  0.0mm
10:04 39.2 °F /  4 °C 23.2 °F /  -4.9 °C 30.4in /  1029.5hPa OSO 2.9mph /  4.6km/h 5.9mph /  9.5km/h 52.4% 0in /  0.0mm
10:09 39.6 °F /  4.2 °C 23 °F /  -5 °C 30.4in /  1029.5hPa OSO 3mph /  4.8km/h 6mph /  9.7km/h 50.9% 0in /  0.0mm
10:14 40.1 °F /  4.5 °C 22.6 °F /  -5.2 °C 30.4in /  1029.5hPa OSO 3.1mph /  5km/h 6.9mph /  11.1km/h 49.3% 0in /  0.0mm
10:19 40.5 °F /  4.7 °C 22.3 °F /  -5.4 °C 30.4in /  1029.7hPa OSO 3.4mph /  5.4km/h 7mph /  11.3km/h 48% 0in /  0.0mm
10:24 41 °F /  5 °C 22.5 °F /  -5.3 °C 30.4in /  1029.7hPa SO 3.6mph /  5.8km/h 5.8mph /  9.3km/h 47.4% 0in /  0.0mm
10:29 41.4 °F /  5.2 °C 22.5 °F /  -5.3 °C 30.4in /  1029.7hPa SO 3.2mph /  5.2km/h 6mph /  9.7km/h 46.5% 0in /  0.0mm
10:34 41.7 °F /  5.4 °C 22.5 °F /  -5.3 °C 30.4in /  1029.8hPa OSO 2.9mph /  4.7km/h 5.8mph /  9.3km/h 46% 0in /  0.0mm
10:39 42.3 °F /  5.7 °C 22.8 °F /  -5.1 °C 30.4in /  1029.8hPa OSO 2.9mph /  4.7km/h 6mph /  9.7km/h 45.9% 0in /  0.0mm
10:44 42.6 °F /  5.9 °C 22.3 °F /  -5.4 °C 30.4in /  1029.8hPa SO 2.9mph /  4.7km/h 9.2mph /  14.8km/h 43.9% 0in /  0.0mm
10:49 43 °F /  6.1 °C 22.3 °F /  -5.4 °C 30.4in /  1029.8hPa SO 3.5mph /  5.6km/h 9mph /  14.5km/h 43.5% 0in /  0.0mm
10:54 43.2 °F /  6.2 °C 22.1 °F /  -5.5 °C 30.4in /  1029.8hPa SO 4mph /  6.5km/h 8.1mph /  13km/h 43.1% 0in /  0.0mm
10:59 43.3 °F /  6.3 °C 22.3 °F /  -5.4 °C 30.4in /  1029.8hPa SSO 4.2mph /  6.7km/h 8mph /  12.9km/h 42.7% 0in /  0.0mm
11:04 43.9 °F /  6.6 °C 22.5 °F /  -5.3 °C 30.4in /  1029.8hPa SSO 4.3mph /  6.9km/h 7mph /  11.3km/h 42.6% 0in /  0.0mm
11:09 44.1 °F /  6.7 °C 22.3 °F /  -5.4 °C 30.4in /  1029.7hPa SSO 4.3mph /  6.9km/h 9.2mph /  14.8km/h 41.7% 0in /  0.0mm
11:14 43.9 °F /  6.6 °C 22.3 °F /  -5.4 °C 30.4in /  1029.7hPa SSO 4.3mph /  6.9km/h 9mph /  14.5km/h 42% 0in /  0.0mm
11:19 44.1 °F /  6.7 °C 22.3 °F /  -5.4 °C 30.4in /  1029.7hPa SO 4.8mph /  7.8km/h 8mph /  12.9km/h 42% 0in /  0.0mm
11:24 44.2 °F /  6.8 °C 22.6 °F /  -5.2 °C 30.4in /  1029.6hPa SSO 5.4mph /  8.7km/h 8.5mph /  13.7km/h 42% 0in /  0.0mm
11:29 44.6 °F /  7 °C 23 °F /  -5 °C 30.4in /  1029.6hPa SSO 5.3mph /  8.5km/h 9.2mph /  14.8km/h 42% 0in /  0.0mm
11:34 45 °F /  7.2 °C 23.2 °F /  -4.9 °C 30.4in /  1029.6hPa SSO 5.2mph /  8.4km/h 9.2mph /  14.8km/h 42% 0in /  0.0mm
11:39 45.1 °F /  7.3 °C 23.4 °F /  -4.8 °C 30.4in /  1029.5hPa SO 4.9mph /  7.9km/h 8mph /  12.9km/h 41.8% 0in /  0.0mm
11:44 45.5 °F /  7.5 °C 23.5 °F /  -4.7 °C 30.4in /  1029.5hPa SSO 4.7mph /  7.6km/h 7mph /  11.3km/h 41.4% 0in /  0.0mm
11:49 45.9 °F /  7.7 °C 23.5 °F /  -4.7 °C 30.4in /  1029.5hPa OSO 4.3mph /  7km/h 7mph /  11.3km/h 41% 0in /  0.0mm
11:54 46.2 °F /  7.9 °C 23.7 °F /  -4.6 °C 30.4in /  1029.4hPa SSO 4mph /  6.5km/h 6.9mph /  11.1km/h 40.7% 0in /  0.0mm
11:59 46.6 °F /  8.1 °C 23.7 °F /  -4.6 °C 30.4in /  1029.4hPa OSO 4mph /  6.5km/h 8.5mph /  13.7km/h 40.2% 0in /  0.0mm
12:04 46.8 °F /  8.2 °C 23.7 °F /  -4.6 °C 30.4in /  1029.4hPa SO 4mph /  6.5km/h 9mph /  14.5km/h 40% 0in /  0.0mm
12:09 46.9 °F /  8.3 °C 23.9 °F /  -4.5 °C 30.4in /  1029.2hPa SO 4.4mph /  7.1km/h 9mph /  14.5km/h 40% 0in /  0.0mm
12:14 47.3 °F /  8.5 °C 23.7 °F /  -4.6 °C 30.4in /  1029.2hPa SO 4.7mph /  7.6km/h 7.6mph /  12.2km/h 39.1% 0in /  0.0mm
12:19 47.7 °F /  8.7 °C 23.5 °F /  -4.7 °C 30.4in /  1029.2hPa OSO 4.7mph /  7.6km/h 8.1mph /  13km/h 38.4% 0in /  0.0mm
12:24 47.8 °F /  8.8 °C 23 °F /  -5 °C 30.4in /  1028.9hPa OSO 4.7mph /  7.6km/h 8.1mph /  13km/h 37.2% 0in /  0.0mm
12:29 48.4 °F /  9.1 °C 22.8 °F /  -5.1 °C 30.4in /  1028.9hPa SO 4.5mph /  7.2km/h 8.1mph /  13km/h 36.5% 0in /  0.0mm
12:34 48.6 °F /  9.2 °C 22.8 °F /  -5.1 °C 30.4in /  1028.9hPa SO 4.3mph /  6.9km/h 8mph /  12.9km/h 36% 0in /  0.0mm
12:39 48.9 °F /  9.4 °C 22.6 °F /  -5.2 °C 30.4in /  1028.6hPa SO 4.2mph /  6.7km/h 7mph /  11.3km/h 35.3% 0in /  0.0mm
12:44 49.3 °F /  9.6 °C 22.8 °F /  -5.1 °C 30.4in /  1028.6hPa SO 4mph /  6.5km/h 7mph /  11.3km/h 35.1% 0in /  0.0mm
12:49 49.6 °F /  9.8 °C 23 °F /  -5 °C 30.4in /  1028.6hPa SO 4mph /  6.5km/h 8.1mph /  13km/h 35% 0in /  0.0mm
12:54 49.6 °F /  9.8 °C 22.5 °F /  -5.3 °C 30.4in /  1028.3hPa SSO 4mph /  6.5km/h 8.1mph /  13km/h 34% 0in /  0.0mm
12:59 50 °F /  10 °C 22.6 °F /  -5.2 °C 30.4in /  1028.3hPa SSO 4.5mph /  7.2km/h 7mph /  11.3km/h 34% 0in /  0.0mm
13:04 50.4 °F /  10.2 °C 23 °F /  -5 °C 30.4in /  1028.3hPa SO 4.7mph /  7.6km/h 8.5mph /  13.7km/h 34% 0in /  0.0mm
13:09 50.4 °F /  10.2 °C 23 °F /  -5 °C 30.4in /  1028.1hPa SO 4.5mph /  7.2km/h 9mph /  14.5km/h 34% 0in /  0.0mm
13:14 50.7 °F /  10.4 °C 22.8 °F /  -5.1 °C 30.4in /  1028.1hPa SSO 4.3mph /  6.9km/h 7mph /  11.3km/h 33.3% 0in /  0.0mm
13:19 51.1 °F /  10.6 °C 22.8 °F /  -5.1 °C 30.4in /  1028.1hPa OSO 3.9mph /  6.3km/h 6.9mph /  11.1km/h 33% 0in /  0.0mm
13:24 51.1 °F /  10.6 °C 23 °F /  -5 °C 30.4in /  1027.9hPa SO 3.6mph /  5.8km/h 7mph /  11.3km/h 33% 0in /  0.0mm
13:29 51.4 °F /  10.8 °C 23.2 °F /  -4.9 °C 30.4in /  1027.9hPa SSE 3.6mph /  5.8km/h 8.1mph /  13km/h 33% 0in /  0.0mm
13:34 51.6 °F /  10.9 °C 23.4 °F /  -4.8 °C 30.4in /  1027.9hPa SSE 3.6mph /  5.8km/h 8mph /  12.9km/h 33% 0in /  0.0mm
13:39 52 °F /  11.1 °C 23.7 °F /  -4.6 °C 30.4in /  1027.7hPa SSE 3.8mph /  6.1km/h 7mph /  11.3km/h 33% 0in /  0.0mm
13:44 52.3 °F /  11.3 °C 23.7 °F /  -4.6 °C 30.4in /  1027.7hPa Sur 4mph /  6.5km/h 6.2mph /  10km/h 32.5% 0in /  0.0mm
13:49 52.5 °F /  11.4 °C 23.9 °F /  -4.5 °C 30.4in /  1027.7hPa SSO 3.5mph /  5.7km/h 6.9mph /  11.1km/h 32.5% 0in /  0.0mm
13:54 52.9 °F /  11.6 °C 24.3 °F /  -4.3 °C 30.3in /  1027.4hPa OSO 3.1mph /  5km/h 7mph /  11.3km/h 32.7% 0in /  0.0mm
13:59 52.9 °F /  11.6 °C 24.4 °F /  -4.2 °C 30.3in /  1027.4hPa SSO 3.1mph /  5km/h 6.9mph /  11.1km/h 32.9% 0in /  0.0mm
14:04 53.1 °F /  11.7 °C 24.8 °F /  -4 °C 30.3in /  1027.4hPa SO 3.1mph /  5km/h 7mph /  11.3km/h 33% 0in /  0.0mm
14:09 53.2 °F /  11.8 °C 25.2 °F /  -3.8 °C 30.3in /  1027.2hPa OSO 3.1mph /  5km/h 6.2mph /  10km/h 33.6% 0in /  0.0mm
14:14 53.1 °F /  11.7 °C 25.3 °F /  -3.7 °C 30.3in /  1027.2hPa SSE 3.1mph /  5km/h 6mph /  9.7km/h 34% 0in /  0.0mm
14:19 53.2 °F /  11.8 °C 25.7 °F /  -3.5 °C 30.3in /  1027.2hPa Sur 2.7mph /  4.4km/h 5mph /  8km/h 34% 0in /  0.0mm
14:24 53.8 °F /  12.1 °C 26.1 °F /  -3.3 °C 30.3in /  1026.9hPa Sur 2.4mph /  3.9km/h 4.3mph /  6.9km/h 34% 0in /  0.0mm
14:29 54.1 °F /  12.3 °C 26.8 °F /  -2.9 °C 30.3in /  1026.9hPa SSO 2.2mph /  3.5km/h 4.7mph /  7.6km/h 34.5% 0in /  0.0mm
14:34 54.3 °F /  12.4 °C 27.1 °F /  -2.7 °C 30.3in /  1026.9hPa SSO 2mph /  3.2km/h 5mph /  8km/h 35% 0in /  0.0mm
14:39 54.7 °F /  12.6 °C 27.9 °F /  -2.3 °C 30.3in /  1026.6hPa Sur 1.9mph /  3km/h 5mph /  8km/h 35.4% 0in /  0.0mm
14:44 54.9 °F /  12.7 °C 29.1 °F /  -1.6 °C 30.3in /  1026.6hPa Sur 1.8mph /  2.9km/h 5.8mph /  9.3km/h 36.9% 0in /  0.0mm
14:49 54.9 °F /  12.7 °C 30 °F /  -1.1 °C 30.3in /  1026.6hPa SSO 2.4mph /  3.8km/h 6mph /  9.7km/h 38.5% 0in /  0.0mm
14:54 55 °F /  12.8 °C 30.4 °F /  -0.9 °C 30.3in /  1026.5hPa SSO 2.9mph /  4.7km/h 6mph /  9.7km/h 39.1% 0in /  0.0mm
14:59 55 °F /  12.8 °C 28.4 °F /  -2 °C 30.3in /  1026.5hPa OSO 2.4mph /  3.8km/h 5mph /  8km/h 35.8% 0in /  0.0mm
15:04 55.4 °F /  13 °C 28.6 °F /  -1.9 °C 30.3in /  1026.5hPa SO 2mph /  3.2km/h 5.8mph /  9.3km/h 35.6% 0in /  0.0mm
15:09 55.6 °F /  13.1 °C 28 °F /  -2.2 °C 30.3in /  1026.4hPa SSO 2mph /  3.2km/h 6mph /  9.7km/h 34.6% 0in /  0.0mm
15:14 55.8 °F /  13.2 °C 27.9 °F /  -2.3 °C 30.3in /  1026.4hPa Sur 2mph /  3.2km/h 5mph /  8km/h 34.1% 0in /  0.0mm
15:19 55.9 °F /  13.3 °C 26.8 °F /  -2.9 °C 30.3in /  1026.4hPa ONO 2mph /  3.2km/h 5mph /  8km/h 32.4% 0in /  0.0mm
15:24 55.9 °F /  13.3 °C 26.2 °F /  -3.2 °C 30.3in /  1026.3hPa Oeste 2mph /  3.2km/h 5.8mph /  9.3km/h 31.7% 0in /  0.0mm
15:29 55.9 °F /  13.3 °C 25.3 °F /  -3.7 °C 30.3in /  1026.3hPa OSO 2.5mph /  4km/h 6mph /  9.7km/h 30.6% 0in /  0.0mm
15:34 55.9 °F /  13.3 °C 24.8 °F /  -4 °C 30.3in /  1026.3hPa Oeste 2.9mph /  4.6km/h 4.6mph /  7.4km/h 29.9% 0in /  0.0mm
15:39 55.9 °F /  13.3 °C 24.4 °F /  -4.2 °C 30.3in /  1026.0hPa ONO 2.4mph /  3.9km/h 5mph /  8km/h 29.3% 0in /  0.0mm
15:44 56.3 °F /  13.5 °C 25.5 °F /  -3.6 °C 30.3in /  1026.0hPa Oeste 2mph /  3.2km/h 5mph /  8km/h 30.4% 0in /  0.0mm
15:49 56.7 °F /  13.7 °C 25.3 °F /  -3.7 °C 30.3in /  1026.0hPa ONO 1.9mph /  3km/h 3.6mph /  5.8km/h 29.9% 0in /  0.0mm
15:54 56.8 °F /  13.8 °C 25.2 °F /  -3.8 °C 30.3in /  1026.0hPa ONO 1.8mph /  2.9km/h 4mph /  6.4km/h 29.3% 0in /  0.0mm
15:59 57.2 °F /  14 °C 25.2 °F /  -3.8 °C 30.3in /  1026.0hPa Oeste 1.8mph /  2.9km/h 3.6mph /  5.8km/h 29% 0in /  0.0mm
16:04 57.6 °F /  14.2 °C 25.3 °F /  -3.7 °C 30.3in /  1026.0hPa Oeste 1.8mph /  2.9km/h 4mph /  6.4km/h 29% 0in /  0.0mm
16:09 57.6 °F /  14.2 °C 25.7 °F /  -3.5 °C 30.3in /  1025.9hPa Oeste 1.8mph /  2.9km/h 4mph /  6.4km/h 29.1% 0in /  0.0mm
16:14 57.7 °F /  14.3 °C 25.2 °F /  -3.8 °C 30.3in /  1025.9hPa Oeste 1.8mph /  2.9km/h 4.6mph /  7.4km/h 28.4% 0in /  0.0mm
16:19 57.7 °F /  14.3 °C 25 °F /  -3.9 °C 30.3in /  1025.9hPa Oeste 1.8mph /  2.9km/h 5mph /  8km/h 28.3% 0in /  0.0mm
16:24 57.7 °F /  14.3 °C 25.3 °F /  -3.7 °C 30.3in /  1025.9hPa Oeste 1.8mph /  2.9km/h 4mph /  6.4km/h 28.5% 0in /  0.0mm
16:29 57.9 °F /  14.4 °C 25 °F /  -3.9 °C 30.3in /  1025.9hPa Oeste 1.8mph /  2.9km/h 3.5mph /  5.6km/h 28% 0in /  0.0mm
16:34 57.9 °F /  14.4 °C 25 °F /  -3.9 °C 30.3in /  1025.9hPa ONO 1.8mph /  2.9km/h 3mph /  4.8km/h 28% 0in /  0.0mm
16:39 58.3 °F /  14.6 °C 25.2 °F /  -3.8 °C 30.3in /  1025.8hPa ONO 1.6mph /  2.6km/h 3.5mph /  5.6km/h 27.8% 0in /  0.0mm
16:44 58.5 °F /  14.7 °C 24.6 °F /  -4.1 °C 30.3in /  1025.8hPa ONO 1.4mph /  2.2km/h 3.5mph /  5.6km/h 27% 0in /  0.0mm
16:49 58.6 °F /  14.8 °C 25 °F /  -3.9 °C 30.3in /  1026.0hPa ONO 1.4mph /  2.2km/h 2.9mph /  4.7km/h 27.3% 0in /  0.0mm
16:54 58.6 °F /  14.8 °C 24.6 °F /  -4.1 °C 30.3in /  1026.0hPa ONO 1.4mph /  2.2km/h 3.6mph /  5.8km/h 27% 0in /  0.0mm
16:59 58.3 °F /  14.6 °C 24.4 °F /  -4.2 °C 30.3in /  1026.0hPa ONO 1.4mph /  2.2km/h 4mph /  6.4km/h 27% 0in /  0.0mm
17:04 57.9 °F /  14.4 °C 24.6 °F /  -4.1 °C 30.3in /  1026.0hPa ONO 1.4mph /  2.2km/h 3.5mph /  5.6km/h 27.5% 0in /  0.0mm
17:09 57.7 °F /  14.3 °C 24.3 °F /  -4.3 °C 30.3in /  1025.9hPa ONO 1.6mph /  2.6km/h 3mph /  4.8km/h 27.5% 0in /  0.0mm
17:14 57.6 °F /  14.2 °C 24.6 °F /  -4.1 °C 30.3in /  1025.9hPa ONO 1.8mph /  2.9km/h 2.9mph /  4.7km/h 28% 0in /  0.0mm
17:19 57.6 °F /  14.2 °C 24.6 °F /  -4.1 °C 30.3in /  1026.0hPa ONO 1.6mph /  2.6km/h 3mph /  4.8km/h 28% 0in /  0.0mm
17:24 57.6 °F /  14.2 °C 24.8 °F /  -4 °C 30.3in /  1026.0hPa ONO 1.4mph /  2.2km/h 3mph /  4.8km/h 28% 0in /  0.0mm
17:29 57.7 °F /  14.3 °C 24.8 °F /  -4 °C 30.3in /  1026.0hPa ONO 0.6mph /  1km/h 1.4mph /  2.3km/h 28% 0in /  0.0mm
17:34 57.9 °F /  14.4 °C 25 °F /  -3.9 °C 30.3in /  1026.1hPa Calm   3.1mph /  5km/h 28% 0in /  0.0mm
17:39 57.7 °F /  14.3 °C 24.8 °F /  -4 °C 30.3in /  1026.1hPa ONO 0.7mph /  1.2km/h 3.6mph /  5.8km/h 28.1% 0in /  0.0mm
17:44 57.2 °F /  14 °C 24.8 °F /  -4 °C 30.3in /  1026.1hPa ONO 1.4mph /  2.2km/h 4.6mph /  7.4km/h 28.6% 0in /  0.0mm
17:49 56.7 °F /  13.7 °C 24.8 °F /  -4 °C 30.3in /  1026.2hPa ONO 1.9mph /  3.1km/h 5mph /  8km/h 29% 0in /  0.0mm
17:54 56.3 °F /  13.5 °C 25.3 °F /  -3.7 °C 30.3in /  1026.2hPa ONO 2.4mph /  3.9km/h 4mph /  6.4km/h 30% 0in /  0.0mm
17:59 55.9 °F /  13.3 °C 25.3 °F /  -3.7 °C 30.3in /  1026.2hPa ONO 2.2mph /  3.5km/h 3.5mph /  5.6km/h 30.3% 0in /  0.0mm
18:04 55.8 °F /  13.2 °C 25.5 °F /  -3.6 °C 30.3in /  1026.2hPa ONO 2mph /  3.2km/h 3mph /  4.8km/h 31% 0in /  0.0mm
18:09 55.6 °F /  13.1 °C 25.5 °F /  -3.6 °C 30.3in /  1026.2hPa ONO 1.9mph /  3km/h 4mph /  6.4km/h 31.1% 0in /  0.0mm
18:14 55.2 °F /  12.9 °C 26.1 °F /  -3.3 °C 30.3in /  1026.2hPa ESE 1.8mph /  2.9km/h 5mph /  8km/h 32.3% 0in /  0.0mm
18:19 54.9 °F /  12.7 °C 26.8 °F /  -2.9 °C 30.3in /  1026.3hPa ESE 2.1mph /  3.4km/h 5mph /  8km/h 33.6% 0in /  0.0mm
18:24 54.5 °F /  12.5 °C 27 °F /  -2.8 °C 30.3in /  1026.3hPa ESE 2.4mph /  3.9km/h 5mph /  8km/h 34.5% 0in /  0.0mm
18:29 54.1 °F /  12.3 °C 27.3 °F /  -2.6 °C 30.3in /  1026.3hPa ESE 2.4mph /  3.9km/h 4mph /  6.4km/h 35.4% 0in /  0.0mm
18:34 54 °F /  12.2 °C 27.5 °F /  -2.5 °C 30.3in /  1026.4hPa ESE 2.4mph /  3.9km/h 4mph /  6.4km/h 36% 0in /  0.0mm
18:39 53.6 °F /  12 °C 27.7 °F /  -2.4 °C 30.3in /  1026.4hPa ESE 2.2mph /  3.5km/h 4mph /  6.4km/h 36.5% 0in /  0.0mm
18:44 53.4 °F /  11.9 °C 28.2 °F /  -2.1 °C 30.3in /  1026.4hPa ESE 2mph /  3.2km/h 3.6mph /  5.8km/h 37.7% 0in /  0.0mm
18:49 53.1 °F /  11.7 °C 28.6 °F /  -1.9 °C 30.3in /  1026.6hPa ESE 1.9mph /  3km/h 4mph /  6.4km/h 38.5% 0in /  0.0mm
18:54 52.9 °F /  11.6 °C 28.9 °F /  -1.7 °C 30.3in /  1026.6hPa ESE 1.8mph /  2.9km/h 3.5mph /  5.6km/h 39.7% 0in /  0.0mm
18:59 52.3 °F /  11.3 °C 29.1 °F /  -1.6 °C 30.3in /  1026.6hPa ESE 1.8mph /  2.9km/h 3mph /  4.8km/h 40.5% 0in /  0.0mm
19:04 52.2 °F /  11.2 °C 29.3 °F /  -1.5 °C 30.3in /  1026.8hPa ESE 1.8mph /  2.9km/h 3mph /  4.8km/h 41.4% 0in /  0.0mm
19:09 51.8 °F /  11 °C 29.7 °F /  -1.3 °C 30.3in /  1026.8hPa ESE 1.6mph /  2.6km/h 4mph /  6.4km/h 42.5% 0in /  0.0mm
19:14 51.4 °F /  10.8 °C 29.7 °F /  -1.3 °C 30.3in /  1026.8hPa ESE 1.4mph /  2.2km/h 5mph /  8km/h 43% 0in /  0.0mm
19:19 51.1 °F /  10.6 °C 29.8 °F /  -1.2 °C 30.3in /  1026.8hPa ESE 1.9mph /  3.1km/h 5.2mph /  8.4km/h 43.9% 0in /  0.0mm
19:24 50.9 °F /  10.5 °C 29.8 °F /  -1.2 °C 30.3in /  1026.8hPa ESE 2.4mph /  3.9km/h 5.4mph /  8.7km/h 44.4% 0in /  0.0mm
19:29 50.7 °F /  10.4 °C 30 °F /  -1.1 °C 30.3in /  1026.8hPa ESE 2.8mph /  4.5km/h 6mph /  9.7km/h 45% 0in /  0.0mm
19:34 50.5 °F /  10.3 °C 30.2 °F /  -1 °C 30.3in /  1026.8hPa ESE 3.1mph /  5km/h 5mph /  8km/h 45.3% 0in /  0.0mm
19:39 50.4 °F /  10.2 °C 30.4 °F /  -0.9 °C 30.3in /  1026.8hPa SE 2.2mph /  3.6km/h 2.4mph /  3.9km/h 46% 0in /  0.0mm
19:44 50.4 °F /  10.2 °C 30.2 °F /  -1 °C 30.3in /  1026.8hPa SSE 1.4mph /  2.2km/h 4.7mph /  7.6km/h 46% 0in /  0.0mm
19:49 49.8 °F /  9.9 °C 29.1 °F /  -1.6 °C 30.3in /  1027.0hPa OSO 1.9mph /  3.1km/h 5.8mph /  9.3km/h 44.9% 0in /  0.0mm
19:54 49.5 °F /  9.7 °C 28.8 °F /  -1.8 °C 30.3in /  1027.0hPa OSO 2.4mph /  3.9km/h 6mph /  9.7km/h 44.7% 0in /  0.0mm
19:59 49.5 °F /  9.7 °C 28.9 °F /  -1.7 °C 30.3in /  1027.0hPa OSO 2.7mph /  4.3km/h 5mph /  8km/h 44.8% 0in /  0.0mm
20:04 49.5 °F /  9.7 °C 28.6 °F /  -1.9 °C 30.3in /  1027.0hPa OSO 2.9mph /  4.6km/h 4.6mph /  7.4km/h 44.2% 0in /  0.0mm
20:09 49.5 °F /  9.7 °C 28.8 °F /  -1.8 °C 30.3in /  1027.0hPa OSO 2.6mph /  4.2km/h 5mph /  8km/h 44.5% 0in /  0.0mm
20:14 49.5 °F /  9.7 °C 29.1 °F /  -1.6 °C 30.3in /  1027.0hPa OSO 2.4mph /  3.9km/h 5mph /  8km/h 45.1% 0in /  0.0mm
20:19 49.3 °F /  9.6 °C 29.3 °F /  -1.5 °C 30.3in /  1027.1hPa OSO 2.4mph /  3.9km/h 5mph /  8km/h 46% 0in /  0.0mm
20:24 48.9 °F /  9.4 °C 29.3 °F /  -1.5 °C 30.3in /  1027.1hPa OSO 2.4mph /  3.9km/h 5mph /  8km/h 46.5% 0in /  0.0mm
20:29 48.7 °F /  9.3 °C 29.3 °F /  -1.5 °C 30.3in /  1027.1hPa OSO 2.7mph /  4.3km/h 5mph /  8km/h 47% 0in /  0.0mm
20:34 48.4 °F /  9.1 °C 29.7 °F /  -1.3 °C 30.3in /  1027.1hPa OSO 2.9mph /  4.7km/h 5mph /  8km/h 48% 0in /  0.0mm
20:39 48.4 °F /  9.1 °C 29.8 °F /  -1.2 °C 30.3in /  1027.0hPa OSO 2.4mph /  3.8km/h 5mph /  8km/h 48.6% 0in /  0.0mm
20:44 48 °F /  8.9 °C 30.2 °F /  -1 °C 30.3in /  1027.0hPa OSO 2mph /  3.2km/h 4.6mph /  7.4km/h 50% 0in /  0.0mm
20:49 48 °F /  8.9 °C 30.6 °F /  -0.8 °C 30.3in /  1027.1hPa OSO 2.2mph /  3.6km/h 5mph /  8km/h 50.8% 0in /  0.0mm
20:54 47.8 °F /  8.8 °C 30.7 °F /  -0.7 °C 30.3in /  1027.1hPa SSO 2.4mph /  3.9km/h 5.2mph /  8.4km/h 51.4% 0in /  0.0mm
20:59 47.7 °F /  8.7 °C 30.9 °F /  -0.6 °C 30.3in /  1027.1hPa Sur 2.8mph /  4.5km/h 5mph /  8km/h 52% 0in /  0.0mm
21:04 47.7 °F /  8.7 °C 30.9 °F /  -0.6 °C 30.3in /  1027.1hPa Sur 3.1mph /  5km/h 5mph /  8km/h 52.4% 0in /  0.0mm
21:09 47.3 °F /  8.5 °C 31.1 °F /  -0.5 °C 30.3in /  1027.1hPa Sur 3.1mph /  5km/h 5mph /  8km/h 53% 0in /  0.0mm
21:14 47.1 °F /  8.4 °C 30.9 °F /  -0.6 °C 30.3in /  1027.1hPa Sur 3.1mph /  5km/h 5mph /  8km/h 53% 0in /  0.0mm
21:19 47.1 °F /  8.4 °C 31.1 °F /  -0.5 °C 30.3in /  1027.2hPa Sur 2.7mph /  4.4km/h 5mph /  8km/h 53.5% 0in /  0.0mm
21:24 47.1 °F /  8.4 °C 31.6 °F /  -0.2 °C 30.3in /  1027.2hPa Sur 2.4mph /  3.9km/h 3mph /  4.8km/h 54.6% 0in /  0.0mm
21:29 46.9 °F /  8.3 °C 31.3 °F /  -0.4 °C 30.3in /  1027.2hPa Sur 1.9mph /  3km/h 4mph /  6.4km/h 54.5% 0in /  0.0mm
21:34 46.9 °F /  8.3 °C 31.6 °F /  -0.2 °C 30.3in /  1027.3hPa Sur 1.4mph /  2.2km/h 5.2mph /  8.4km/h 55% 0in /  0.0mm
21:39 46.8 °F /  8.2 °C 31.5 °F /  -0.3 °C 30.3in /  1027.3hPa Sur 2.2mph /  3.5km/h 5mph /  8km/h 55% 0in /  0.0mm
21:44 46.6 °F /  8.1 °C 31.5 °F /  -0.3 °C 30.3in /  1027.3hPa Sur 2.9mph /  4.6km/h 5mph /  8km/h 55.2% 0in /  0.0mm
21:49 46.6 °F /  8.1 °C 31.6 °F /  -0.2 °C 30.3in /  1027.4hPa Sur 2.4mph /  3.9km/h 4mph /  6.4km/h 56% 0in /  0.0mm
21:54 46.4 °F /  8 °C 31.5 °F /  -0.3 °C 30.3in /  1027.4hPa Sur 2mph /  3.2km/h 3.5mph /  5.6km/h 56% 0in /  0.0mm
21:59 46.2 °F /  7.9 °C 31.5 °F /  -0.3 °C 30.3in /  1027.4hPa Sur 1.6mph /  2.6km/h 3mph /  4.8km/h 56.3% 0in /  0.0mm
22:04 46 °F /  7.8 °C 31.6 °F /  -0.2 °C 30.3in /  1027.4hPa Sur 1.4mph /  2.2km/h 4.6mph /  7.4km/h 57% 0in /  0.0mm
22:09 45.9 °F /  7.7 °C 31.5 °F /  -0.3 °C 30.3in /  1027.4hPa SSE 1.7mph /  2.7km/h 5.4mph /  8.7km/h 57% 0in /  0.0mm
22:14 45.3 °F /  7.4 °C 31.3 °F /  -0.4 °C 30.3in /  1027.4hPa SSE 2mph /  3.2km/h 6.2mph /  10km/h 57.8% 0in /  0.0mm
22:19 44.6 °F /  7 °C 31.1 °F /  -0.5 °C 30.3in /  1027.4hPa Sur 3.2mph /  5.2km/h 6.2mph /  10km/h 58.7% 0in /  0.0mm
22:24 44.2 °F /  6.8 °C 30.9 °F /  -0.6 °C 30.3in /  1027.4hPa SO 4.3mph /  6.9km/h 8.1mph /  13km/h 59% 0in /  0.0mm
22:29 44.2 °F /  6.8 °C 30.9 °F /  -0.6 °C 30.3in /  1027.4hPa OSO 4.5mph /  7.3km/h 8.1mph /  13km/h 59% 0in /  0.0mm
22:34 44.4 °F /  6.9 °C 30.9 °F /  -0.6 °C 30.3in /  1027.4hPa OSO 4.7mph /  7.6km/h 8mph /  12.9km/h 58.7% 0in /  0.0mm
22:39 44.4 °F /  6.9 °C 30.6 °F /  -0.8 °C 30.3in /  1027.4hPa OSO 4.3mph /  7km/h 6mph /  9.7km/h 58% 0in /  0.0mm
22:44 44.4 °F /  6.9 °C 30.6 °F /  -0.8 °C 30.3in /  1027.4hPa OSO 4mph /  6.5km/h 5mph /  8km/h 58% 0in /  0.0mm
22:49 44.4 °F /  6.9 °C 30.6 °F /  -0.8 °C 30.3in /  1027.4hPa OSO 3.2mph /  5.1km/h 5.2mph /  8.4km/h 58% 0in /  0.0mm
22:54 44.2 °F /  6.8 °C 30.6 °F /  -0.8 °C 30.3in /  1027.4hPa Sur 2.4mph /  3.9km/h 5.8mph /  9.3km/h 58.1% 0in /  0.0mm
22:59 44.1 °F /  6.7 °C 30.7 °F /  -0.7 °C 30.3in /  1027.4hPa Sur 2.8mph /  4.5km/h 6mph /  9.7km/h 59% 0in /  0.0mm
23:04 43.9 °F /  6.6 °C 30.7 °F /  -0.7 °C 30.3in /  1027.5hPa Sur 3.1mph /  5km/h 6mph /  9.7km/h 59.9% 0in /  0.0mm
23:09 43.5 °F /  6.4 °C 30.6 °F /  -0.8 °C 30.3in /  1027.5hPa Sur 3.4mph /  5.4km/h 6mph /  9.7km/h 60.1% 0in /  0.0mm
23:14 43.5 °F /  6.4 °C 30.9 °F /  -0.6 °C 30.3in /  1027.5hPa Sur 3.6mph /  5.8km/h 5mph /  8km/h 61% 0in /  0.0mm
23:19 43.5 °F /  6.4 °C 31.5 °F /  -0.3 °C 30.3in /  1027.6hPa Sur 3.4mph /  5.4km/h 5mph /  8km/h 61.9% 0in /  0.0mm
23:24 43.5 °F /  6.4 °C 31.5 °F /  -0.3 °C 30.3in /  1027.6hPa Sur 3.1mph /  5km/h 5.9mph /  9.5km/h 62% 0in /  0.0mm
23:29 43.5 °F /  6.4 °C 31.6 °F /  -0.2 °C 30.3in /  1027.6hPa Sur 3.6mph /  5.8km/h 7.4mph /  11.9km/h 62.7% 0in /  0.0mm
23:34 43.3 °F /  6.3 °C 31.5 °F /  -0.3 °C 30.3in /  1027.6hPa Sur 4mph /  6.5km/h 8.7mph /  14km/h 63% 0in /  0.0mm
23:39 43.2 °F /  6.2 °C 31.3 °F /  -0.4 °C 30.3in /  1027.4hPa Sur 5mph /  8.1km/h 9.2mph /  14.8km/h 63.1% 0in /  0.0mm
23:44 43 °F /  6.1 °C 31.6 °F /  -0.2 °C 30.3in /  1027.4hPa SSO 5.9mph /  9.5km/h 8.1mph /  13km/h 64% 0in /  0.0mm
23:49 42.8 °F /  6 °C 31.5 °F /  -0.3 °C 30.3in /  1027.4hPa Sur 5.5mph /  8.9km/h 8mph /  12.9km/h 64% 0in /  0.0mm
23:54 42.8 °F /  6 °C 31.5 °F /  -0.3 °C 30.3in /  1027.3hPa Sur 5.2mph /  8.4km/h 7mph /  11.3km/h 64% 0in /  0.0mm
23:59 42.8 °F /  6 °C 31.5 °F /  -0.3 °C 30.3in /  1027.3hPa Sur 4.7mph /  7.5km/h 6.2mph /  10km/h 64% 0in /  0.0mm
Murcia-Puente Tocinos, Espa?a
Compliments of Weather Underground - 3.25 mb

La estación de MeteoMurcia.com, publica sus datos en los siguientes proyectos:

Weather Underground PWS IMURCIAP2 Meteoclimatic www.awekas.at

W3Counter
Web Analytics